Arlington, Virginia
Current Conditions -  °F | °C
As of 1:52 AM on Friday 28 Nov 2014 (Local Time) from KDCA Reporting Station
Few Clouds Few Clouds  
Wind Chill: 30°   Ceiling: Unl
Heat Index: 37°   Visibility: 10mi
Dew Point: 22°   Wind: 10mph
Humidity: 54%   Direction: 300°WNW
Pressure: 30.21"   Gusts: NA
Location:  38.89°N, 77.09°W
Report Text: KDCA 280652Z 30009KT 10SM FEW040 03/M06 A3021 RMK AO2 SLP229 T00281056
Loading
Personal Weather Stations






























Interactive Weather Map New forecast layout! Learn more

10-Day Weather Forecast

Advertisements
Track Severe Weather on mobile